AirNav   Air Wisconsin pilot careers
 
 1363 users online  

KTTF Custer Airport
Monroe, Michigan, USA

GOING TO MONROE?


FAA INFORMATION EFFECTIVE 29 MARCH 2018

Location

FAA Identifier: TTF
Lat/Long: 41-56-23.6000N / 083-26-04.8000W
41-56.393333N / 083-26.080000W
41.9398889 / -83.4346667
(estimated)
Elevation: 615.6 ft. / 187.6 m (surveyed)
Variation: 05W (1980)
From city: 2 miles NW of MONROE, MI
Time zone: UTC -4 (UTC -5 during Standard Time)
Zip code: 48162

Airport Operations

Airport use: Open to the public
Activation date: 11/1946
Control tower: no
ARTCC: CLEVELAND CENTER
FSS: LANSING FLIGHT SERVICE STATION
NOTAMs facility: TTF (NOTAM-D service available)
Attendance: 0800-1700
Wind indicator: lighted
Segmented circle: yes
Lights: ACTVT MIRL RY 03/21, REIL RY 21, VASI RY 03 & PAPI RY 21 - CTAF.
Beacon: white-green (lighted land airport)
Operates sunset to sunrise.

Airport Communications

CTAF/UNICOM: 122.7
WX AWOS-3: 119.075 (734-384-0259)
DETROIT APPROACH: 134.3
DETROIT DEPARTURE: 134.3
WX AWOS-3 at ONZ (15 nm NE): 119.675 (734-692-9686)
WX AWOS-3 at DUH (16 nm SW): 119.175 (734-856-1563)
WX ASOS at DTW (17 nm N): 133.675 (734-955-5015)
WX ASOS at YIP (19 nm N): 132.35 (734-485-9056)

Nearby radio navigation aids

VOR radial/distance  VOR name  Freq  Var
CRLr174/6.6CARLETON VOR/DME115.7003W
DXOr196/16.7DETROIT VOR/DME113.4006W
SVMr169/29.0SALEM VORTAC114.3003W
VWVr019/30.7WATERVILLE VOR/DME113.1002W
YQGr241/32.8WINDSOR VOR/DME113.8006W

 
NDB name  Hdg/Dist  Freq  Var  ID
GROSSE ILE239/15.941907WRYS .-. -.-- ...
TECUMSEH112/20.923906WTCU - -.-. ..-
ADRIAN088/29.027806WADG .- -.. --.
PORT CLINTON322/35.842307WPCW .--. -.-. .--

Airport Services

Fuel available: 100LL JET-A
Parking: hangars and tiedowns
Airframe service: MAJOR
Powerplant service: MAJOR
Bottled oxygen: NONE
Bulk oxygen: HIGH

Runway Information

Runway 3/21

Dimensions: 4997 x 100 ft. / 1523 x 30 m
Surface: asphalt/grooved, in good condition
Weight bearing capacity: 
Single wheel: 60.0
Double wheel: 80.0
Runway edge lights: medium intensity
RUNWAY 3  RUNWAY 21
Latitude: 41-56.013992N41-56.774095N
Longitude: 083-26.290813W083-25.869247W
Elevation: 611.1 ft.615.4 ft.
Gradient: 0.1%0.1%
Traffic pattern: leftleft
Runway heading: 027 magnetic, 022 true207 magnetic, 202 true
Markings: nonprecision, in fair conditionnonprecision, in fair condition
Visual slope indicator: 2-box VASI on left (4.00 degrees glide path)2-light PAPI on left (3.50 degrees glide path)
Runway end identifier lights: noyes
Touchdown point: yes, no lightsyes, no lights
Obstructions: 63 ft. trees, 1463 ft. from runway, 80 ft. left of centerline, 20:1 slope to clear44 ft. trees, 1760 ft. from runway, 35:1 slope to clear

Airport Ownership and Management from official FAA records

Ownership: Publicly-owned
Owner: CITY OF MONROE
222 JONES AVE
MONROE, MI 48161
Phone 734-241-6800
Manager: JERARD E. DELANEY II.
2800 N CUSTER RD
MONROE, MI 48161
Phone (734) 384-9616

Airport Operational Statistics

Aircraft based on the field: 36
Single engine airplanes: 33
Multi engine airplanes: 3
    
Aircraft operations: avg 33/day *
50% transient general aviation
50% local general aviation
* for 12-month period ending 31 December 2014

Additional Remarks

BIRDS & DEER INVOF RWY.
NOISE SENSITIVE AREAS. DEP ACFT MAX RATE OF CLIMB TO TPA.
FOR CD CTC DETROIT APCH AT 800-499-8181.

Instrument Procedures

NOTE: All procedures below are presented as PDF files. If you need a reader for these files, you should download the free Adobe Reader.

NOT FOR NAVIGATION. Please procure official charts for flight.
FAA instrument procedures published for use from 29 March 2018 at 0901Z to 26 April 2018 at 0900Z.

 
STARs - Standard Terminal Arrivals
CRUXX SIX   download (248KB)
SPRTN THREE   download (158KB)
 
IAPs - Instrument Approach Procedures
RNAV (GPS) RWY 03 **CHANGED**   download (201KB)
RNAV (GPS) RWY 21 **CHANGED**   download (225KB)
VOR RWY 21 **CHANGED**   download (191KB)
NOTE: Special Alternate Minimums apply   download (39KB)
NOTE: Special Take-Off Minimums/Departure Procedures apply   download (122KB)

Other nearby airports with instrument procedures:

KONZ - Grosse Ile Municipal Airport (15 nm NE)
KDUH - Toledo Suburban Airport (16 nm SW)
KDTW - Detroit Metropolitan Wayne County Airport (17 nm N)
KYIP - Willow Run Airport (19 nm N)
KARB - Ann Arbor Municipal Airport (22 nm NW)
 
Loc | Ops | Rwys | IFR | FBO | Links
Com | Nav | Svcs | Stats | Notes

AirNav Hotels Sweepstakes
 
Area around KTTF (Custer Airport)
 
Road maps at: MapQuest Bing Google
 
Aerial photo
WARNING: Photo may not be current or correct
Aerial photo of KTTF (Custer Airport)
Photo by Robin Sprys
Photo taken 22-Jun-2010

Do you have a better or more recent aerial photo of Custer Airport that you would like to share? If so, please send us your photo.

 
Sectional chart

 
Airport distance calculator
Flying to Custer Airport? Find the distance to fly.

From to KTTF

Sunrise and sunset
Times for 20-Apr-2018
 Local
(UTC-4)
 Zulu
(UTC)
Morning civil twilight06:1710:17
Sunrise06:4710:47
Sunset20:1900:19
Evening civil twilight20:4800:48

Current date and time
Zulu (UTC)  20-Apr-2018 19:22:21
Local (UTC-4)  20-Apr-2018 15:22:21
 
METAR
KTTF 201855Z AUTO 17006KT 10SM CLR 13/M09 A3045 RMK AO2 T01261089
KDUH 
16nm SW 
201856Z AUTO 35005G15KT 10SM CLR 14/M08 A3045 RMK AO2 T01401084
KONZ 
16nm NE 
201856Z AUTO 19007KT 10SM CLR 08/M01 A3046 RMK AO2 T00841011
KYIP 
18nm N 
201853Z VRB06KT 10SM CLR 14/M08 A3045 RMK AO2 SLP314 T01391083
KDTW 
18nm N 
201853Z 02005G14KT 10SM CLR 13/M09 A3045 RMK AO2 SLP315 T01331089
TAF
KYIP 
18nm N 
201737Z 2018/2118 34006KT P6SM FEW250 FM210100 08004KT P6SM SCT200 FM210600 VRB02KT P6SM SCT200
KDTW 
18nm N 
201737Z 2018/2124 34006KT P6SM FEW250 FM210100 08004KT P6SM SCT200 FM210600 VRB02KT P6SM SCT200
NOTAMs
Click for the latest NOTAMs
NOTAMs are issued by the DoD/FAA and will open in a separate window not controlled by AirNav.

 

 
 

FBO, Fuel Providers, and Aircraft Ground Support

  
 Business Name 
 
 Contact 
 
 Services / Description 
 
Fuel Prices
 
Comments
  
Monroe Aviation School of Flight 734-384-9616
no information available

If you are affiliated with Monroe Aviation School of Flight and would like to show here your services, contact info, web link, logo, and more, click here
100LL Jet A
FS $4.75 $3.50 
 Updated 18-Apr-2018
 
   1 read write
FS=Full service
Update Fuel Prices
 

Where to Stay: Hotels, Motels, Resorts, B&Bs, Campgrounds

 The hotels featured here are reported to be very convenient to the Custer Airport. If your hotel/inn/B&B/resort is near the Custer Airport, provides convenient transportation, or is otherwise attractive to pilots, flight crews, and airport users, consider listing it here.
  
 Business Name 
 
 Contact 
 
 Services / Description 
 
Distance
 
Comments
  
Hotel Sterling 734-242-6212
[web site]
[email]
[Reservations]
Restaurant, Lodging

More info about Hotel Sterling
2.5 miles  
   write
Feature A Hotel
 

Would you like to see your business listed on this page?

 If your business provides an interesting product or service to pilots, flight crews, aircraft, or users of the Custer Airport, you should consider listing it here.  To start the listing process, click on the button below
 
Add a business
 

Other Pages about Custer Airport

Page from the Michigan Airport Directory (PDF)
 
Update a link
 
Copyright © AirNav, LLC. All rights reserved. Privacy Policy  Contact